createdAt,value
2023-05-19T00:01:09.051Z,12.92
2023-05-19T00:03:40.385Z,12.66
2023-05-19T00:06:10.506Z,12.87
2023-05-19T00:08:38.080Z,12.81
2023-05-19T00:11:04.844Z,12.68
2023-05-19T00:13:31.563Z,12.77
2023-05-19T00:15:58.188Z,12.67
2023-05-19T00:18:24.742Z,12.72
2023-05-19T00:20:52.393Z,12.84
2023-05-19T00:23:18.908Z,12.82
2023-05-19T00:25:45.410Z,12.84
2023-05-19T00:28:11.939Z,12.98
2023-05-19T00:30:38.439Z,13.09
2023-05-19T00:33:04.986Z,13.08
2023-05-19T00:35:31.658Z,13.13
2023-05-19T00:37:58.129Z,12.85
2023-05-19T00:40:24.967Z,12.87
2023-05-19T00:42:52.513Z,12.75
2023-05-19T00:45:19.079Z,12.55
2023-05-19T00:47:45.799Z,12.62
2023-05-19T00:50:12.367Z,12.65
2023-05-19T00:52:38.958Z,12.79
2023-05-19T00:55:05.673Z,12.93
2023-05-19T00:57:32.271Z,12.76
2023-05-19T00:59:59.039Z,12.70
2023-05-19T01:02:25.808Z,12.73
2023-05-19T01:04:53.492Z,12.87
2023-05-19T01:07:21.199Z,12.88
2023-05-19T01:09:47.702Z,12.77
2023-05-19T01:12:14.616Z,12.71
2023-05-19T01:14:41.828Z,12.75
2023-05-19T01:17:19.310Z,12.74
2023-05-19T01:20:08.030Z,12.61
2023-05-19T01:22:34.521Z,12.58
2023-05-19T01:25:08.808Z,12.66
2023-05-19T01:27:35.392Z,12.60
2023-05-19T01:30:17.302Z,12.68
2023-05-19T01:32:45.010Z,12.56
2023-05-19T01:35:12.699Z,12.56
2023-05-19T01:37:40.861Z,12.57
2023-05-19T01:40:10.091Z,12.58
2023-05-19T01:42:39.806Z,12.59
2023-05-19T01:45:06.839Z,12.61
2023-05-19T01:47:35.065Z,12.59
2023-05-19T01:50:01.575Z,12.50
2023-05-19T01:52:28.176Z,12.50
2023-05-19T01:54:54.720Z,12.39
2023-05-19T01:57:28.017Z,12.36
2023-05-19T01:59:54.541Z,12.36
2023-05-19T02:02:29.535Z,12.33
2023-05-19T02:04:59.492Z,12.29
2023-05-19T02:07:31.071Z,12.43
2023-05-19T02:10:04.605Z,12.43
2023-05-19T02:12:36.171Z,12.57
2023-05-19T02:15:14.233Z,12.65
2023-05-19T02:17:42.233Z,12.79
2023-05-19T02:20:10.127Z,12.72
2023-05-19T02:22:36.665Z,12.45
2023-05-19T02:25:03.246Z,12.47
2023-05-19T02:27:32.806Z,12.55
2023-05-19T02:29:59.305Z,12.59
2023-05-19T02:32:25.888Z,12.67
2023-05-19T02:34:53.312Z,12.58
2023-05-19T02:37:23.764Z,12.70
2023-05-19T02:39:50.388Z,12.62
2023-05-19T02:42:18.295Z,12.63
2023-05-19T02:44:44.841Z,12.66
2023-05-19T02:47:12.269Z,12.69
2023-05-19T02:49:38.816Z,12.78
2023-05-19T02:52:05.853Z,12.69
2023-05-19T02:54:32.918Z,12.75
2023-05-19T02:56:59.624Z,12.65
2023-05-19T02:59:26.162Z,12.66
2023-05-19T03:01:55.576Z,12.63
2023-05-19T03:04:22.235Z,12.77
2023-05-19T03:06:48.756Z,12.70
2023-05-19T03:09:15.329Z,12.75
2023-05-19T03:11:41.840Z,12.88
2023-05-19T03:14:12.091Z,12.77
2023-05-19T03:16:41.161Z,12.70
2023-05-19T03:19:08.407Z,12.70
2023-05-19T03:21:35.251Z,12.43
2023-05-19T03:24:01.853Z,12.65
2023-05-19T03:26:32.509Z,12.82
2023-05-19T03:28:59.069Z,12.60
2023-05-19T03:31:26.808Z,12.47
2023-05-19T03:33:53.582Z,12.64
2023-05-19T03:36:22.135Z,12.72
2023-05-19T03:38:48.769Z,12.70
2023-05-19T03:41:15.628Z,12.95
2023-05-19T03:43:42.216Z,12.97
2023-05-19T03:46:09.825Z,12.81
2023-05-19T03:48:54.206Z,12.77
2023-05-19T03:51:20.770Z,12.75
2023-05-19T03:53:50.051Z,12.71
2023-05-19T03:56:18.180Z,12.79
2023-05-19T03:58:45.056Z,12.79
2023-05-19T04:01:11.811Z,13.02
2023-05-19T04:03:38.472Z,13.01
2023-05-19T04:06:05.033Z,13.17
2023-05-19T04:08:32.145Z,13.07
2023-05-19T04:10:58.729Z,13.09
2023-05-19T04:13:25.448Z,13.22
2023-05-19T04:15:52.175Z,13.00
2023-05-19T04:18:18.714Z,13.17
2023-05-19T04:20:45.280Z,14.22
2023-05-19T04:23:11.854Z,13.33
2023-05-19T04:25:38.413Z,13.16
2023-05-19T04:28:04.933Z,12.88
2023-05-19T04:30:31.614Z,12.66
2023-05-19T04:32:59.768Z,12.70
2023-05-19T04:35:26.599Z,12.75
2023-05-19T04:37:54.397Z,12.76
2023-05-19T04:40:25.952Z,12.88
2023-05-19T04:42:52.951Z,12.84
2023-05-19T04:45:19.887Z,13.05
2023-05-19T04:47:50.149Z,13.03
2023-05-19T04:50:16.969Z,12.91
2023-05-19T04:52:45.692Z,13.24
2023-05-19T04:55:13.237Z,12.95
2023-05-19T04:57:40.655Z,13.03
2023-05-19T05:00:13.905Z,13.09
2023-05-19T05:02:53.993Z,12.74
2023-05-19T05:05:21.489Z,13.09
2023-05-19T05:07:48.040Z,13.22
2023-05-19T05:10:15.457Z,13.39
2023-05-19T05:12:42.266Z,13.26
2023-05-19T05:15:10.020Z,12.89
2023-05-19T05:17:38.414Z,12.68
2023-05-19T05:20:06.579Z,12.74
2023-05-19T05:22:33.617Z,12.75
2023-05-19T05:25:01.336Z,12.67
2023-05-19T05:27:27.868Z,12.69
2023-05-19T05:29:54.511Z,12.79
2023-05-19T05:32:21.672Z,12.62
2023-05-19T05:34:48.694Z,12.72
2023-05-19T05:37:15.740Z,12.60
2023-05-19T05:39:42.450Z,12.84
2023-05-19T05:42:09.410Z,13.00
2023-05-19T05:44:35.967Z,13.00
2023-05-19T05:47:04.583Z,12.92
2023-05-19T05:49:31.641Z,13.03
2023-05-19T05:52:05.874Z,12.97
2023-05-19T05:54:39.787Z,13.27
2023-05-19T05:57:07.128Z,13.28
2023-05-19T05:59:34.460Z,13.09
2023-05-19T06:02:01.430Z,13.13
2023-05-19T06:04:28.458Z,13.26
2023-05-19T06:07:00.890Z,13.16
2023-05-19T06:09:30.872Z,13.28
2023-05-19T06:11:58.437Z,13.26
2023-05-19T06:14:27.075Z,13.59
2023-05-19T06:17:14.574Z,13.79
2023-05-19T06:19:41.298Z,13.78
2023-05-19T06:22:07.825Z,13.73
2023-05-19T06:24:34.407Z,13.90
2023-05-19T06:27:02.646Z,13.75
2023-05-19T06:29:29.185Z,13.78
2023-05-19T06:31:59.062Z,13.75
2023-05-19T06:34:25.757Z,13.58
2023-05-19T06:36:53.493Z,13.98
2023-05-19T06:39:20.167Z,13.89
2023-05-19T06:41:46.804Z,13.84
2023-05-19T06:44:26.784Z,13.86
2023-05-19T06:46:53.335Z,13.98
2023-05-19T06:49:20.268Z,13.70
2023-05-19T06:51:49.125Z,13.75
2023-05-19T06:54:16.348Z,13.69
2023-05-19T06:56:43.395Z,13.75
2023-05-19T06:59:10.834Z,14.28
2023-05-19T07:01:38.759Z,14.64
2023-05-19T07:04:05.613Z,14.60
2023-05-19T07:06:32.364Z,14.43
2023-05-19T07:08:58.884Z,15.02
2023-05-19T07:11:26.437Z,15.55
2023-05-19T07:13:53.556Z,15.27
2023-05-19T07:16:25.934Z,15.48
2023-05-19T07:18:52.659Z,14.77
2023-05-19T07:21:19.254Z,15.13
2023-05-19T07:23:46.752Z,15.35
2023-05-19T07:26:13.232Z,15.22
2023-05-19T07:28:41.623Z,15.46
2023-05-19T07:31:08.384Z,15.53
2023-05-19T07:33:34.901Z,15.32
2023-05-19T07:36:01.437Z,15.42
2023-05-19T07:38:28.817Z,15.23
2023-05-19T07:40:55.385Z,15.70
2023-05-19T07:43:21.926Z,15.20
2023-05-19T07:45:48.478Z,15.29
2023-05-19T07:48:15.093Z,15.52
2023-05-19T07:50:41.718Z,16.09
2023-05-19T07:53:08.301Z,15.97
2023-05-19T07:55:34.942Z,16.49
2023-05-19T07:58:01.435Z,16.40
2023-05-19T08:00:28.386Z,16.70
2023-05-19T08:02:56.939Z,16.62
2023-05-19T08:05:23.744Z,16.66
2023-05-19T08:07:50.236Z,16.70
2023-05-19T08:10:16.763Z,16.70
2023-05-19T08:12:44.260Z,16.53
2023-05-19T08:15:11.808Z,15.66
2023-05-19T08:17:38.443Z,16.54
2023-05-19T08:20:06.379Z,17.35
2023-05-19T08:22:32.939Z,17.03
2023-05-19T08:24:59.396Z,17.41
2023-05-19T08:27:26.067Z,17.39
2023-05-19T08:29:52.666Z,17.73
2023-05-19T08:32:19.223Z,17.76
2023-05-19T08:34:45.701Z,17.32
2023-05-19T08:37:13.250Z,17.69
2023-05-19T08:39:39.983Z,16.90
2023-05-19T08:42:08.185Z,16.93
2023-05-19T08:44:34.967Z,17.28
2023-05-19T08:47:03.135Z,16.90
2023-05-19T08:49:32.474Z,16.84
2023-05-19T08:52:06.222Z,16.81
2023-05-19T08:54:45.850Z,16.31
2023-05-19T08:57:13.005Z,17.00
2023-05-19T08:59:40.867Z,16.47
2023-05-19T09:02:08.609Z,16.61
2023-05-19T09:04:35.226Z,16.91
2023-05-19T09:07:04.004Z,17.25
2023-05-19T09:09:30.573Z,16.58
2023-05-19T09:11:57.097Z,16.69
2023-05-19T09:14:23.915Z,17.30
2023-05-19T09:16:52.783Z,17.08
2023-05-19T09:19:20.808Z,17.17
2023-05-19T09:21:58.504Z,17.35
2023-05-19T09:24:25.700Z,17.28
2023-05-19T09:26:55.411Z,17.81
2023-05-19T09:29:23.136Z,17.87
2023-05-19T09:31:54.531Z,18.82
2023-05-19T09:34:22.359Z,19.29
2023-05-19T09:36:53.315Z,18.89
2023-05-19T09:39:21.239Z,19.91
2023-05-19T09:41:51.384Z,19.44
2023-05-19T09:44:21.040Z,18.83
2023-05-19T09:46:48.308Z,19.13
2023-05-19T09:49:18.616Z,17.72
2023-05-19T09:51:45.782Z,17.92
2023-05-19T09:54:15.013Z,18.22
2023-05-19T09:56:41.588Z,18.34
2023-05-19T09:59:08.342Z,19.08
2023-05-19T10:01:36.326Z,20.15
2023-05-19T10:04:05.263Z,20.13
2023-05-19T10:06:32.576Z,20.50
2023-05-19T10:08:59.914Z,19.72
2023-05-19T10:11:27.393Z,18.82
2023-05-19T10:13:53.942Z,20.03
2023-05-19T10:16:21.888Z,21.43
2023-05-19T10:18:49.910Z,21.34
2023-05-19T10:21:16.660Z,20.09
2023-05-19T10:23:43.148Z,20.54
2023-05-19T10:26:10.448Z,21.18
2023-05-19T10:28:39.492Z,20.91
2023-05-19T10:31:08.427Z,21.05
2023-05-19T10:33:47.111Z,20.12
2023-05-19T10:36:17.518Z,20.45
2023-05-19T10:38:50.613Z,20.93
2023-05-19T10:41:41.464Z,20.87
2023-05-19T10:44:31.448Z,20.49
2023-05-19T10:46:58.171Z,19.98
2023-05-19T10:49:24.756Z,19.28
2023-05-19T10:51:57.703Z,19.51
2023-05-19T10:54:46.273Z,21.13
2023-05-19T10:57:19.955Z,20.31
2023-05-19T10:59:47.199Z,20.79
2023-05-19T11:02:32.866Z,21.50
2023-05-19T11:05:08.175Z,23.09
2023-05-19T11:07:34.956Z,22.17
2023-05-19T11:10:05.400Z,22.45
2023-05-19T11:12:39.823Z,22.50
2023-05-19T11:15:07.539Z,23.34
2023-05-19T11:17:35.068Z,23.06
2023-05-19T11:20:01.695Z,21.36
2023-05-19T11:22:28.366Z,22.45
2023-05-19T11:24:55.263Z,21.12
2023-05-19T11:27:32.585Z,21.11
2023-05-19T11:30:02.290Z,22.25
2023-05-19T11:32:30.208Z,21.59
2023-05-19T11:34:57.672Z,21.15
2023-05-19T11:37:24.204Z,22.23
2023-05-19T11:39:52.155Z,21.35
2023-05-19T11:42:19.145Z,21.49
2023-05-19T11:44:46.423Z,21.45
2023-05-19T11:47:13.231Z,20.98
2023-05-19T11:49:43.048Z,20.77
2023-05-19T11:52:09.532Z,20.79
2023-05-19T11:54:39.351Z,20.36
2023-05-19T11:57:06.241Z,20.91
2023-05-19T11:59:35.584Z,20.85
2023-05-19T12:02:22.739Z,21.26
2023-05-19T12:04:49.505Z,22.29
2023-05-19T12:07:19.883Z,23.08
2023-05-19T12:09:46.981Z,22.05
2023-05-19T12:12:14.733Z,22.65
2023-05-19T12:14:41.825Z,22.04
2023-05-19T12:17:15.663Z,21.93
2023-05-19T12:19:45.850Z,20.96
2023-05-19T12:22:12.925Z,20.46
2023-05-19T12:24:40.311Z,20.57
2023-05-19T12:27:07.477Z,20.37
2023-05-19T12:29:34.588Z,20.55
2023-05-19T12:32:01.756Z,20.22
2023-05-19T12:34:28.398Z,19.87
2023-05-19T12:36:54.924Z,21.08
2023-05-19T12:39:22.550Z,20.40
2023-05-19T12:41:49.065Z,20.65
2023-05-19T12:44:15.940Z,20.51
2023-05-19T12:46:43.873Z,21.63
2023-05-19T12:49:10.920Z,20.89
2023-05-19T12:51:37.403Z,20.29
2023-05-19T12:54:04.830Z,19.61
2023-05-19T12:56:31.475Z,19.79
2023-05-19T12:59:00.328Z,19.41
2023-05-19T13:01:26.892Z,19.61
2023-05-19T13:03:53.720Z,20.13
2023-05-19T13:06:20.451Z,19.88
2023-05-19T13:08:47.300Z,20.61
2023-05-19T13:11:13.819Z,20.57
2023-05-19T13:13:40.307Z,20.53
2023-05-19T13:16:06.964Z,20.92
2023-05-19T13:18:35.305Z,20.52
2023-05-19T13:21:01.812Z,20.64
2023-05-19T13:23:28.316Z,21.28
2023-05-19T13:25:54.854Z,21.60
2023-05-19T13:28:21.442Z,21.81
2023-05-19T13:30:49.545Z,21.32
2023-05-19T13:33:16.335Z,21.40
2023-05-19T13:35:42.939Z,21.71
2023-05-19T13:38:10.226Z,20.80
2023-05-19T13:40:37.627Z,20.77
2023-05-19T13:43:04.403Z,20.50
2023-05-19T13:45:31.058Z,20.39
2023-05-19T13:47:57.703Z,20.52
2023-05-19T13:50:24.233Z,21.23
2023-05-19T13:52:50.854Z,21.41
2023-05-19T13:55:17.613Z,20.55
2023-05-19T13:57:44.852Z,20.09
2023-05-19T14:00:11.539Z,20.38
2023-05-19T14:02:40.991Z,20.86
2023-05-19T14:05:08.037Z,20.55
2023-05-19T14:07:35.124Z,20.36
2023-05-19T14:10:02.591Z,20.92
2023-05-19T14:12:37.890Z,20.61
2023-05-19T14:15:11.484Z,20.44
2023-05-19T14:17:38.251Z,20.49
2023-05-19T14:20:05.165Z,20.60
2023-05-19T14:22:32.262Z,20.34
2023-05-19T14:25:00.343Z,20.55
2023-05-19T14:27:26.867Z,19.90
2023-05-19T14:29:53.447Z,20.34
2023-05-19T14:32:20.524Z,19.41
2023-05-19T14:34:47.229Z,19.14
2023-05-19T14:37:13.736Z,19.10
2023-05-19T14:39:40.337Z,19.00
2023-05-19T14:42:06.842Z,19.27
2023-05-19T14:44:33.346Z,19.06
2023-05-19T14:47:01.065Z,19.00
2023-05-19T14:49:27.677Z,18.95
2023-05-19T14:51:54.327Z,18.84
2023-05-19T14:54:20.852Z,18.82
2023-05-19T14:56:47.424Z,19.12
2023-05-19T14:59:13.982Z,19.42
2023-05-19T15:01:40.519Z,19.42
2023-05-19T15:04:07.082Z,19.30
2023-05-19T15:06:33.616Z,19.17
2023-05-19T15:09:00.204Z,19.46
2023-05-19T15:11:26.729Z,19.72
2023-05-19T15:13:53.321Z,20.35
2023-05-19T15:16:19.833Z,20.10
2023-05-19T15:18:46.465Z,19.54
2023-05-19T15:21:13.250Z,19.40
2023-05-19T15:23:39.767Z,19.04
2023-05-19T15:26:06.723Z,18.90
2023-05-19T15:28:33.614Z,18.62
2023-05-19T15:31:00.255Z,18.92
2023-05-19T15:33:26.949Z,19.00
2023-05-19T15:35:54.248Z,18.87
2023-05-19T15:38:20.791Z,19.15
2023-05-19T15:40:47.351Z,18.89
2023-05-19T15:43:14.109Z,18.92
2023-05-19T15:45:40.977Z,19.34
2023-05-19T15:48:07.594Z,19.51
2023-05-19T15:50:34.519Z,19.23
2023-05-19T15:53:01.294Z,19.04
2023-05-19T15:55:27.845Z,19.09
2023-05-19T15:57:54.332Z,18.47
2023-05-19T16:00:20.998Z,18.25
2023-05-19T16:02:47.806Z,18.19
2023-05-19T16:05:14.558Z,18.37
2023-05-19T16:07:42.159Z,18.06
2023-05-19T16:10:09.064Z,18.64
2023-05-19T16:12:36.678Z,18.52
2023-05-19T16:15:03.576Z,18.17
2023-05-19T16:17:30.360Z,18.23
2023-05-19T16:19:56.882Z,18.04
2023-05-19T16:22:24.814Z,18.28
2023-05-19T16:24:51.820Z,18.38
2023-05-19T16:27:18.657Z,18.14
2023-05-19T16:29:45.126Z,18.49
2023-05-19T16:32:11.747Z,18.11
2023-05-19T16:34:38.357Z,17.94
2023-05-19T16:37:04.896Z,18.12
2023-05-19T16:39:31.480Z,18.23
2023-05-19T16:41:57.967Z,18.23
2023-05-19T16:44:25.611Z,18.48
2023-05-19T16:46:52.174Z,18.49
2023-05-19T16:49:18.745Z,18.51
2023-05-19T16:51:46.843Z,18.40
2023-05-19T16:54:14.784Z,18.59
2023-05-19T16:56:41.319Z,18.71
2023-05-19T16:59:09.224Z,18.82
2023-05-19T17:01:35.807Z,18.55
2023-05-19T17:04:02.430Z,18.74
2023-05-19T17:06:28.991Z,18.73
2023-05-19T17:08:55.512Z,18.58
2023-05-19T17:11:22.024Z,18.13
2023-05-19T17:13:48.708Z,17.99
2023-05-19T17:16:15.369Z,18.12
2023-05-19T17:18:42.025Z,18.02
2023-05-19T17:21:08.635Z,18.05
2023-05-19T17:23:35.155Z,18.00
2023-05-19T17:26:01.927Z,17.86
2023-05-19T17:28:28.585Z,17.84
2023-05-19T17:30:55.168Z,17.87
2023-05-19T17:33:21.784Z,17.98
2023-05-19T17:35:48.319Z,17.88
2023-05-19T17:38:14.816Z,17.71
2023-05-19T17:40:42.204Z,17.52
2023-05-19T17:43:08.838Z,17.57
2023-05-19T17:45:35.592Z,17.59
2023-05-19T17:48:02.376Z,17.36
2023-05-19T17:50:28.918Z,17.25
2023-05-19T17:52:56.151Z,17.33
2023-05-19T17:55:24.751Z,17.17
2023-05-19T17:57:51.293Z,17.23
2023-05-19T18:00:18.563Z,17.12
2023-05-19T18:02:45.345Z,16.98
2023-05-19T18:05:12.380Z,17.09
2023-05-19T18:07:39.879Z,16.80
2023-05-19T18:10:06.953Z,16.68
2023-05-19T18:12:33.496Z,16.63
2023-05-19T18:15:00.152Z,16.49
2023-05-19T18:17:26.755Z,16.49
2023-05-19T18:19:54.545Z,16.63
2023-05-19T18:22:21.220Z,16.56
2023-05-19T18:24:47.855Z,16.41
2023-05-19T18:27:14.571Z,16.39
2023-05-19T18:29:41.250Z,16.43
2023-05-19T18:32:08.017Z,16.41
2023-05-19T18:34:34.561Z,16.49
2023-05-19T18:37:01.067Z,16.43
2023-05-19T18:39:29.312Z,16.40
2023-05-19T18:41:56.015Z,16.57
2023-05-19T18:44:22.559Z,16.43
2023-05-19T18:46:49.148Z,16.56
2023-05-19T18:49:15.761Z,16.57
2023-05-19T18:51:42.504Z,16.60
2023-05-19T18:54:09.140Z,16.70
2023-05-19T18:56:35.705Z,16.60
2023-05-19T18:59:02.273Z,16.50
2023-05-19T19:01:29.013Z,16.39
2023-05-19T19:03:55.838Z,16.35
2023-05-19T19:06:23.288Z,16.24
2023-05-19T19:08:50.084Z,16.46
2023-05-19T19:11:16.598Z,16.54
2023-05-19T19:13:43.705Z,16.54
2023-05-19T19:16:10.674Z,16.56
2023-05-19T19:18:37.436Z,16.57
2023-05-19T19:21:05.661Z,16.61
2023-05-19T19:23:32.663Z,16.76
2023-05-19T19:25:59.178Z,16.76
2023-05-19T19:28:25.843Z,16.72
2023-05-19T19:30:52.318Z,16.85
2023-05-19T19:33:18.934Z,16.88
2023-05-19T19:35:46.945Z,17.13
2023-05-19T19:38:13.602Z,17.02
2023-05-19T19:40:40.219Z,16.74
2023-05-19T19:43:06.737Z,16.53
2023-05-19T19:45:34.734Z,16.42
2023-05-19T19:48:01.766Z,16.45
2023-05-19T19:50:28.366Z,16.48
2023-05-19T19:52:54.882Z,16.46
2023-05-19T19:55:21.657Z,16.38
2023-05-19T19:57:49.403Z,16.36
2023-05-19T20:00:16.582Z,16.45
2023-05-19T20:02:55.822Z,16.42
2023-05-19T20:05:29.707Z,16.23
2023-05-19T20:07:56.235Z,16.19
2023-05-19T20:10:22.754Z,16.20
2023-05-19T20:12:50.523Z,16.22
2023-05-19T20:15:17.194Z,16.10
2023-05-19T20:17:43.872Z,16.07
2023-05-19T20:20:11.745Z,15.98
2023-05-19T20:22:38.930Z,16.17
2023-05-19T20:25:05.804Z,16.28
2023-05-19T20:27:32.323Z,16.33
2023-05-19T20:29:58.830Z,16.32
2023-05-19T20:32:25.630Z,16.28
2023-05-19T20:34:52.194Z,16.12
2023-05-19T20:37:18.744Z,16.12
2023-05-19T20:39:45.341Z,15.93
2023-05-19T20:42:12.241Z,15.98
2023-05-19T20:44:38.837Z,16.14
2023-05-19T20:47:08.081Z,16.14
2023-05-19T20:49:35.248Z,16.04
2023-05-19T20:52:01.856Z,15.86
2023-05-19T20:54:28.373Z,15.68
2023-05-19T20:56:54.918Z,15.81
2023-05-19T20:59:21.539Z,15.80
2023-05-19T21:01:48.189Z,15.86
2023-05-19T21:04:14.904Z,15.88
2023-05-19T21:06:41.528Z,15.93
2023-05-19T21:09:08.018Z,15.87
2023-05-19T21:11:34.637Z,16.06
2023-05-19T21:14:04.085Z,15.77
2023-05-19T21:16:31.330Z,15.40
2023-05-19T21:18:58.075Z,15.62
2023-05-19T21:21:24.689Z,15.98
2023-05-19T21:23:51.218Z,15.92
2023-05-19T21:26:17.871Z,15.86
2023-05-19T21:28:44.363Z,15.79
2023-05-19T21:31:11.081Z,15.80
2023-05-19T21:33:37.671Z,15.80
2023-05-19T21:36:04.277Z,15.87
2023-05-19T21:38:30.925Z,15.96
2023-05-19T21:40:57.561Z,15.94
2023-05-19T21:43:24.083Z,15.90
2023-05-19T21:45:50.690Z,15.91
2023-05-19T21:48:17.344Z,15.67
2023-05-19T21:50:43.927Z,15.54
2023-05-19T21:53:10.608Z,15.70
2023-05-19T21:55:37.113Z,15.81
2023-05-19T21:58:03.716Z,15.83
2023-05-19T22:00:30.204Z,15.72
2023-05-19T22:02:56.891Z,15.58
2023-05-19T22:05:23.459Z,15.66
2023-05-19T22:07:49.958Z,15.96
2023-05-19T22:10:16.502Z,15.86
2023-05-19T22:12:43.066Z,15.84
2023-05-19T22:15:09.955Z,15.92
2023-05-19T22:17:36.691Z,15.95
2023-05-19T22:20:03.449Z,15.92
2023-05-19T22:22:29.950Z,15.92
2023-05-19T22:24:56.633Z,15.93
2023-05-19T22:27:23.186Z,15.44
2023-05-19T22:29:49.779Z,15.17
2023-05-19T22:32:18.272Z,15.48
2023-05-19T22:34:45.219Z,15.94
2023-05-19T22:37:11.808Z,16.00
2023-05-19T22:39:38.893Z,16.04
2023-05-19T22:42:05.607Z,16.12
2023-05-19T22:44:32.112Z,15.99
2023-05-19T22:46:58.632Z,15.78
2023-05-19T22:49:26.168Z,15.54
2023-05-19T22:51:52.837Z,15.54
2023-05-19T22:54:19.322Z,15.61
2023-05-19T22:56:48.421Z,15.78
2023-05-19T22:59:17.624Z,15.88
2023-05-19T23:01:46.351Z,15.96
2023-05-19T23:04:13.597Z,15.92
2023-05-19T23:06:40.420Z,15.58
2023-05-19T23:09:06.931Z,15.46
2023-05-19T23:11:34.245Z,15.52
2023-05-19T23:14:00.809Z,15.46
2023-05-19T23:16:27.349Z,15.48
2023-05-19T23:18:53.863Z,15.52
2023-05-19T23:21:20.465Z,15.55
2023-05-19T23:23:46.933Z,15.54
2023-05-19T23:26:13.652Z,15.40
2023-05-19T23:28:41.491Z,15.31
2023-05-19T23:31:08.174Z,15.29
2023-05-19T23:33:34.704Z,15.27
2023-05-19T23:36:05.478Z,15.12
2023-05-19T23:38:31.966Z,14.96
2023-05-19T23:40:58.450Z,15.17
2023-05-19T23:43:24.921Z,15.48
2023-05-19T23:45:51.409Z,15.45
2023-05-19T23:48:17.945Z,15.17
2023-05-19T23:50:44.594Z,15.11
2023-05-19T23:53:11.364Z,14.98
2023-05-19T23:55:37.817Z,15.02
2023-05-19T23:58:04.441Z,15.02
